Terminal Aerodrome Forecast
Issued by NWS Wilmington, OH

Home | Current Version | Previous Version | Text Only | Print | Product List | Glossary On
Versions: 1 2 3 4 5 6 7 8 9 10 11 12 13 14 15 16 17 18 19 20 21 22 23 24 25 26 27 28 29 30 31 32 33 34
516
FTUS41 KILN 292334
TAFCVG
TAF
KCVG 292334Z 3000/3106 VRB04KT P6SM VCTS SCT040CB BKN250
      TEMPO 3000/3004 VRB06G20KT 3SM -TSRA SCT020 OVC040CB
     FM300400 00000KT 5SM BR FEW040 SCT120
      TEMPO 3008/3012 1SM BR SCT010
     FM301300 24006KT P6SM SCT035
     FM301700 24006KT P6SM VCSH SCT035 BKN250
     FM302100 24006KT P6SM BKN040
     FM310100 00000KT P6SM FEW040=

USA.gov is the U.S. government's official web portal to all federal, state and local government web resources and services.